sensor_id;sensor_type;location;lat;lon;timestamp;pressure;altitude;pressure_sealevel;temperature;humidity
6680;BME280;3376;42.664;23.346;2023-02-10T16:55:22;96047.09;;;1.40;57.71
6680;BME280;3376;42.664;23.346;2023-02-10T16:57:50;96073.69;;;1.52;58.49
6680;BME280;3376;42.664;23.346;2023-02-10T17:00:19;96078.22;;;1.47;58.50
6680;BME280;3376;42.664;23.346;2023-02-10T17:02:46;96079.84;;;1.48;59.12
6680;BME280;3376;42.664;23.346;2023-02-10T17:05:15;96074.34;;;1.40;58.97
6680;BME280;3376;42.664;23.346;2023-02-10T17:07:42;96076.50;;;1.47;59.54
6680;BME280;3376;42.664;23.346;2023-02-10T17:10:15;96073.50;;;1.55;58.69
6680;BME280;3376;42.664;23.346;2023-02-10T17:12:43;95919.41;;;0.48;59.27
6680;BME280;3376;42.664;23.346;2023-02-10T17:15:11;96052.94;;;1.11;60.29
6680;BME280;3376;42.664;23.346;2023-02-10T17:17:38;96075.47;;;1.18;60.47
6680;BME280;3376;42.664;23.346;2023-02-10T17:20:07;96083.63;;;6.93;60.98
6680;BME280;3376;42.664;23.346;2023-02-10T17:22:34;96073.91;;;1.00;60.85
6680;BME280;3376;42.664;23.346;2023-02-10T17:25:02;96084.75;;;0.88;61.32
6680;BME280;3376;42.664;23.346;2023-02-10T17:27:29;96060.41;;;0.66;61.83
6680;BME280;3376;42.664;23.346;2023-02-10T17:29:57;96078.06;;;0.86;61.24
6680;BME280;3376;42.664;23.346;2023-02-10T17:32:24;96079.44;;;0.76;61.43
6680;BME280;3376;42.664;23.346;2023-02-10T17:34:51;95912.91;;;-0.38;61.98
6680;BME280;3376;42.664;23.346;2023-02-10T17:37:18;96093.03;;;0.76;62.20
6680;BME280;3376;42.664;23.346;2023-02-10T17:39:46;96089.31;;;1.14;74.25
6680;BME280;3376;42.664;23.346;2023-02-10T17:42:15;96092.66;;;1.15;70.34
6680;BME280;3376;42.664;23.346;2023-02-10T17:44:44;96088.47;;;1.14;66.37
6680;BME280;3376;42.664;23.346;2023-02-10T17:47:12;96097.16;;;0.94;63.58
6680;BME280;3376;42.664;23.346;2023-02-10T17:49:38;96100.22;;;0.85;63.96
6680;BME280;3376;42.664;23.346;2023-02-10T17:52:05;96098.19;;;0.75;63.74
6680;BME280;3376;42.664;23.346;2023-02-10T17:54:32;96098.31;;;0.56;64.08
6680;BME280;3376;42.664;23.346;2023-02-10T17:56:59;96078.66;;;0.41;63.64
6680;BME280;3376;42.664;23.346;2023-02-10T17:59:25;96119.81;;;0.51;63.52
6680;BME280;3376;42.664;23.346;2023-02-10T18:01:52;96109.72;;;0.32;64.29
6680;BME280;3376;42.664;23.346;2023-02-10T18:04:22;96066.94;;;0.05;64.68
6680;BME280;3376;42.664;23.346;2023-02-10T18:06:49;96120.19;;;0.26;64.77
6680;BME280;3376;42.664;23.346;2023-02-10T18:09:15;96117.06;;;0.21;65.09
6680;BME280;3376;42.664;23.346;2023-02-10T18:11:42;96119.59;;;0.21;65.61
6680;BME280;3376;42.664;23.346;2023-02-10T18:14:09;96119.91;;;0.32;65.22
6680;BME280;3376;42.664;23.346;2023-02-10T18:16:36;96116.00;;;0.25;64.85
6680;BME280;3376;42.664;23.346;2023-02-10T18:19:02;96110.59;;;0.14;65.98
6680;BME280;3376;42.664;23.346;2023-02-10T18:21:30;96116.00;;;0.08;65.36
6680;BME280;3376;42.664;23.346;2023-02-10T18:23:57;96122.53;;;0.14;65.84
6680;BME280;3376;42.664;23.346;2023-02-10T18:26:26;96131.28;;;0.08;65.76
6680;BME280;3376;42.664;23.346;2023-02-10T18:28:53;96137.34;;;0.06;65.25
6680;BME280;3376;42.664;23.346;2023-02-10T18:31:20;96137.38;;;-0.13;65.79
6680;BME280;3376;42.664;23.346;2023-02-10T18:33:47;96138.38;;;-0.16;66.05
6680;BME280;3376;42.664;23.346;2023-02-10T18:36:16;96135.75;;;-0.14;66.16
6680;BME280;3376;42.664;23.346;2023-02-10T18:38:45;96137.25;;;-0.10;66.11
6680;BME280;3376;42.664;23.346;2023-02-10T18:41:12;96137.69;;;-0.19;65.20
6680;BME280;3376;42.664;23.346;2023-02-10T18:43:39;96141.81;;;0.00;64.29
6680;BME280;3376;42.664;23.346;2023-02-10T18:46:06;96131.88;;;-0.04;64.06
6680;BME280;3376;42.664;23.346;2023-02-10T18:48:32;96123.03;;;0.03;63.50
6680;BME280;3376;42.664;23.346;2023-02-10T18:51:02;96140.13;;;0.18;63.88
6680;BME280;3376;42.664;23.346;2023-02-10T18:53:29;96139.09;;;0.22;62.29
6680;BME280;3376;42.664;23.346;2023-02-10T18:56:05;96151.44;;;0.30;61.06
6680;BME280;3376;42.664;23.346;2023-02-10T18:58:32;96048.66;;;-0.56;61.34
6680;BME280;3376;42.664;23.346;2023-02-10T19:01:02;96152.94;;;0.17;61.15
6680;BME280;3376;42.664;23.346;2023-02-10T19:03:30;96152.13;;;0.33;62.19
6680;BME280;3376;42.664;23.346;2023-02-10T19:05:57;96148.38;;;0.40;64.33
6680;BME280;3376;42.664;23.346;2023-02-10T19:08:23;96148.53;;;0.37;61.79
6680;BME280;3376;42.664;23.346;2023-02-10T19:10:50;96159.69;;;0.35;61.03
6680;BME280;3376;42.664;23.346;2023-02-10T19:13:19;96160.75;;;0.31;61.32
6680;BME280;3376;42.664;23.346;2023-02-10T19:15:47;96162.25;;;0.35;61.11
6680;BME280;3376;42.664;23.346;2023-02-10T19:18:14;96162.31;;;0.33;60.37
6680;BME280;3376;42.664;23.346;2023-02-10T19:20:41;96148.31;;;0.25;60.01
6680;BME280;3376;42.664;23.346;2023-02-10T19:23:08;96057.31;;;-0.25;59.87
6680;BME280;3376;42.664;23.346;2023-02-10T19:25:35;96175.81;;;0.35;60.72
6680;BME280;3376;42.664;23.346;2023-02-10T19:28:02;96166.06;;;0.43;59.39
6680;BME280;3376;42.664;23.346;2023-02-10T19:30:30;96169.31;;;0.47;59.45
6680;BME280;3376;42.664;23.346;2023-02-10T19:32:57;96165.94;;;0.29;59.88
6680;BME280;3376;42.664;23.346;2023-02-10T19:35:24;96167.88;;;0.41;60.38
6680;BME280;3376;42.664;23.346;2023-02-10T19:37:51;96166.47;;;0.36;60.41
6680;BME280;3376;42.664;23.346;2023-02-10T19:40:17;96138.63;;;0.31;59.74
6680;BME280;3376;42.664;23.346;2023-02-10T19:42:44;96170.88;;;0.49;60.11
6680;BME280;3376;42.664;23.346;2023-02-10T19:45:11;96173.88;;;0.40;60.45
6680;BME280;3376;42.664;23.346;2023-02-10T19:47:39;96179.50;;;0.47;60.14
6680;BME280;3376;42.664;23.346;2023-02-10T19:50:06;96180.78;;;0.55;58.38
6680;BME280;3376;42.664;23.346;2023-02-10T19:52:34;96160.22;;;0.41;59.85
6680;BME280;3376;42.664;23.346;2023-02-10T19:55:01;96175.91;;;0.51;59.99
6680;BME280;3376;42.664;23.346;2023-02-10T19:57:27;96184.44;;;0.50;59.69
6680;BME280;3376;42.664;23.346;2023-02-10T19:59:55;96181.00;;;0.51;60.26
6680;BME280;3376;42.664;23.346;2023-02-10T20:02:22;96176.44;;;0.57;60.01
6680;BME280;3376;42.664;23.346;2023-02-10T20:04:50;96178.09;;;0.58;60.71
6680;BME280;3376;42.664;23.346;2023-02-10T20:07:18;96185.50;;;0.63;59.36
6680;BME280;3376;42.664;23.346;2023-02-10T20:09:45;96155.19;;;0.57;58.75
6680;BME280;3376;42.664;23.346;2023-02-10T20:12:12;96173.97;;;0.56;59.07
6680;BME280;3376;42.664;23.346;2023-02-10T20:14:40;96171.69;;;0.50;58.94
6680;BME280;3376;42.664;23.346;2023-02-10T20:17:06;96155.28;;;0.38;58.82
6680;BME280;3376;42.664;23.346;2023-02-10T20:19:33;96173.28;;;0.52;60.03
6680;BME280;3376;42.664;23.346;2023-02-10T20:22:01;96172.91;;;0.77;87.18
6680;BME280;3376;42.664;23.346;2023-02-10T20:24:28;96179.66;;;0.78;65.19
6680;BME280;3376;42.664;23.346;2023-02-10T20:26:55;96187.00;;;0.84;61.64
6680;BME280;3376;42.664;23.346;2023-02-10T20:29:22;96179.28;;;0.51;61.39
6680;BME280;3376;42.664;23.346;2023-02-10T20:31:48;96188.56;;;0.52;62.52
6680;BME280;3376;42.664;23.346;2023-02-10T20:34:15;96187.06;;;0.48;61.58
6680;BME280;3376;42.664;23.346;2023-02-10T20:36:43;96184.38;;;0.34;61.05
6680;BME280;3376;42.664;23.346;2023-02-10T20:39:12;96187.38;;;0.25;62.02
6680;BME280;3376;42.664;23.346;2023-02-10T20:41:39;96171.75;;;0.31;63.53
6680;BME280;3376;42.664;23.346;2023-02-10T20:44:05;96172.53;;;0.33;63.71
6680;BME280;3376;42.664;23.346;2023-02-10T20:46:32;96175.59;;;0.40;62.26
6680;BME280;3376;42.664;23.346;2023-02-10T20:49:00;96176.41;;;0.23;63.84
6680;BME280;3376;42.664;23.346;2023-02-10T20:51:30;96185.25;;;0.16;64.17
6680;BME280;3376;42.664;23.346;2023-02-10T20:53:57;96177.59;;;0.16;64.71
6680;BME280;3376;42.664;23.346;2023-02-10T20:56:26;96170.25;;;0.10;63.78
6680;BME280;3376;42.664;23.346;2023-02-10T20:58:52;96179.84;;;0.05;64.67
6680;BME280;3376;42.664;23.346;2023-02-10T21:01:19;96184.03;;;0.06;64.07
6680;BME280;3376;42.664;23.346;2023-02-10T21:03:46;96169.78;;;0.02;64.56
6680;BME280;3376;42.664;23.346;2023-02-10T21:06:16;96180.44;;;0.10;65.10
6680;BME280;3376;42.664;23.346;2023-02-10T21:08:45;96172.19;;;0.05;65.68
6680;BME280;3376;42.664;23.346;2023-02-10T21:11:14;96179.53;;;0.11;65.80
6680;BME280;3376;42.664;23.346;2023-02-10T21:13:42;96168.44;;;0.12;64.86
6680;BME280;3376;42.664;23.346;2023-02-10T21:16:11;96166.28;;;0.05;65.68
6680;BME280;3376;42.664;23.346;2023-02-10T21:18:38;96168.41;;;-0.05;65.17
6680;BME280;3376;42.664;23.346;2023-02-10T21:21:06;96172.94;;;0.07;65.27
6680;BME280;3376;42.664;23.346;2023-02-10T21:23:33;96152.56;;;0.24;90.94
6680;BME280;3376;42.664;23.346;2023-02-10T21:26:00;96158.34;;;0.28;70.59
6680;BME280;3376;42.664;23.346;2023-02-10T21:28:28;96121.63;;;0.15;77.33
6680;BME280;3376;42.664;23.346;2023-02-10T21:30:56;96134.88;;;0.04;66.34
6680;BME280;3376;42.664;23.346;2023-02-10T21:33:23;96169.19;;;0.14;67.48
6680;BME280;3376;42.664;23.346;2023-02-10T21:35:52;96167.03;;;0.07;66.12
6680;BME280;3376;42.664;23.346;2023-02-10T21:38:20;96166.53;;;-0.02;66.46
6680;BME280;3376;42.664;23.346;2023-02-10T21:40:47;96161.25;;;0.03;66.90
6680;BME280;3376;42.664;23.346;2023-02-10T21:43:14;96168.28;;;-0.02;67.05
6680;BME280;3376;42.664;23.346;2023-02-10T21:45:46;96167.69;;;-0.07;68.32
6680;BME280;3376;42.664;23.346;2023-02-10T21:48:15;96159.34;;;-0.11;69.63
6680;BME280;3376;42.664;23.346;2023-02-10T21:50:42;96155.97;;;-0.11;68.17
6680;BME280;3376;42.664;23.346;2023-02-10T21:53:10;95879.81;;;-1.79;67.96
6680;BME280;3376;42.664;23.346;2023-02-10T21:55:37;96161.75;;;-0.08;68.80
6680;BME280;3376;42.664;23.346;2023-02-10T21:58:04;96163.69;;;-0.13;67.61
6680;BME280;3376;42.664;23.346;2023-02-10T22:00:31;96161.47;;;-0.20;69.80
6680;BME280;3376;42.664;23.346;2023-02-10T22:02:58;96170.91;;;-0.22;68.86
6680;BME280;3376;42.664;23.346;2023-02-10T22:05:26;96172.88;;;-0.10;68.87
6680;BME280;3376;42.664;23.346;2023-02-10T22:07:53;96163.84;;;-0.16;68.85
6680;BME280;3376;42.664;23.346;2023-02-10T22:10:21;96170.50;;;-0.13;69.09
6680;BME280;3376;42.664;23.346;2023-02-10T22:12:48;96170.19;;;-0.24;70.70
6680;BME280;3376;42.664;23.346;2023-02-10T22:15:14;96170.56;;;-0.15;68.13
6680;BME280;3376;42.664;23.346;2023-02-10T22:17:41;96170.78;;;-0.19;68.73
6680;BME280;3376;42.664;23.346;2023-02-10T22:20:09;96174.13;;;-0.19;69.23
6680;BME280;3376;42.664;23.346;2023-02-10T22:22:37;96170.56;;;-0.15;68.52
6680;BME280;3376;42.664;23.346;2023-02-10T22:25:04;96170.28;;;-0.27;68.75
6680;BME280;3376;42.664;23.346;2023-02-10T22:27:31;96166.88;;;-0.26;71.12
6680;BME280;3376;42.664;23.346;2023-02-10T22:29:58;96172.34;;;-0.17;70.74
6680;BME280;3376;42.664;23.346;2023-02-10T22:32:25;96173.03;;;-0.13;70.84
6680;BME280;3376;42.664;23.346;2023-02-10T22:34:51;96171.41;;;-0.14;76.81
6680;BME280;3376;42.664;23.346;2023-02-10T22:37:18;96177.00;;;0.11;84.19
6680;BME280;3376;42.664;23.346;2023-02-10T22:39:46;96187.59;;;0.02;74.29
6680;BME280;3376;42.664;23.346;2023-02-10T22:42:13;96181.38;;;-0.10;71.35
6680;BME280;3376;42.664;23.346;2023-02-10T22:44:40;96180.16;;;-0.20;71.25
6680;BME280;3376;42.664;23.346;2023-02-10T22:47:07;96181.06;;;-0.21;69.34
6680;BME280;3376;42.664;23.346;2023-02-10T22:49:34;96176.16;;;-0.25;70.18
6680;BME280;3376;42.664;23.346;2023-02-10T22:52:00;96167.69;;;-0.44;72.88
6680;BME280;3376;42.664;23.346;2023-02-10T22:54:27;96162.34;;;-0.57;70.57
6680;BME280;3376;42.664;23.346;2023-02-10T22:56:55;96174.09;;;-0.54;71.53
6680;BME280;3376;42.664;23.346;2023-02-10T22:59:22;96165.84;;;-0.59;70.61
6680;BME280;3376;42.664;23.346;2023-02-10T23:01:49;96151.88;;;-0.69;72.05
6680;BME280;3376;42.664;23.346;2023-02-10T23:04:16;96170.94;;;-0.59;71.51
6680;BME280;3376;42.664;23.346;2023-02-10T23:06:44;96178.72;;;-0.62;71.95
6680;BME280;3376;42.664;23.346;2023-02-10T23:09:15;96167.00;;;-0.66;71.79
6680;BME280;3376;42.664;23.346;2023-02-10T23:11:44;96157.59;;;-0.64;72.98
6680;BME280;3376;42.664;23.346;2023-02-10T23:14:13;96162.22;;;-0.72;70.44
6680;BME280;3376;42.664;23.346;2023-02-10T23:16:40;96157.75;;;-0.67;72.84
6680;BME280;3376;42.664;23.346;2023-02-10T23:19:07;96154.69;;;-0.75;70.54
6680;BME280;3376;42.664;23.346;2023-02-10T23:21:34;96159.38;;;-0.66;72.02
6680;BME280;3376;42.664;23.346;2023-02-10T23:24:01;96157.13;;;-0.72;71.17
6680;BME280;3376;42.664;23.346;2023-02-10T23:26:29;96154.00;;;-0.79;71.11
6680;BME280;3376;42.664;23.346;2023-02-10T23:28:57;96162.97;;;-0.70;71.25
6680;BME280;3376;42.664;23.346;2023-02-10T23:31:26;96158.66;;;-0.88;71.43
6680;BME280;3376;42.664;23.346;2023-02-10T23:33:53;96167.94;;;-0.87;71.57
6680;BME280;3376;42.664;23.346;2023-02-10T23:36:21;96164.53;;;-0.86;72.17
6680;BME280;3376;42.664;23.346;2023-02-10T23:38:48;96168.44;;;-0.79;71.81
6680;BME280;3376;42.664;23.346;2023-02-10T23:41:16;96165.91;;;-0.79;70.93
6680;BME280;3376;42.664;23.346;2023-02-10T23:43:43;96178.00;;;-0.84;70.79
6680;BME280;3376;42.664;23.346;2023-02-10T23:46:09;96139.31;;;-1.11;70.15
6680;BME280;3376;42.664;23.346;2023-02-10T23:48:38;96113.31;;;-1.36;71.53
6680;BME280;3376;42.664;23.346;2023-02-10T23:51:06;96171.09;;;-1.01;70.34
6680;BME280;3376;42.664;23.346;2023-02-10T23:53:34;96143.72;;;-1.14;71.02
6680;BME280;3376;42.664;23.346;2023-02-10T23:56:01;96171.22;;;-1.04;70.70
6680;BME280;3376;42.664;23.346;2023-02-10T23:58:28;96171.50;;;-1.10;70.51
